createdAt,value
2023-03-12T00:01:20.341Z,19.98
2023-03-12T00:03:48.407Z,17.88
2023-03-12T00:06:15.392Z,23.40
2023-03-12T00:08:42.889Z,20.80
2023-03-12T00:11:11.196Z,19.42
2023-03-12T00:13:38.119Z,18.85
2023-03-12T00:16:10.079Z,21.48
2023-03-12T00:18:37.127Z,25.40
2023-03-12T00:21:04.175Z,22.13
2023-03-12T00:23:30.774Z,25.00
2023-03-12T00:26:05.933Z,22.65
2023-03-12T00:28:33.086Z,21.90
2023-03-12T00:30:59.496Z,27.38
2023-03-12T00:33:27.123Z,25.65
2023-03-12T00:35:54.309Z,23.52
2023-03-12T00:38:21.021Z,29.00
2023-03-12T00:40:47.576Z,25.08
2023-03-12T00:43:14.417Z,24.77
2023-03-12T00:45:40.739Z,22.27
2023-03-12T00:48:07.060Z,24.05
2023-03-12T00:50:34.233Z,20.60
2023-03-12T00:53:00.577Z,22.15
2023-03-12T00:55:26.932Z,21.80
2023-03-12T00:57:53.249Z,21.00
2023-03-12T01:00:19.781Z,20.00
2023-03-12T01:02:46.084Z,27.17
2023-03-12T01:05:13.429Z,20.75
2023-03-12T01:07:40.034Z,18.77
2023-03-12T01:10:07.651Z,21.00
2023-03-12T01:12:34.104Z,19.55
2023-03-12T01:15:01.393Z,21.17
2023-03-12T01:17:27.715Z,21.33
2023-03-12T01:19:54.000Z,24.63
2023-03-12T01:22:20.316Z,18.60
2023-03-12T01:24:46.605Z,21.60
2023-03-12T01:27:12.969Z,20.05
2023-03-12T01:29:39.285Z,22.90
2023-03-12T01:32:06.094Z,19.52
2023-03-12T01:34:32.392Z,21.80
2023-03-12T01:36:58.984Z,19.33
2023-03-12T01:39:25.282Z,16.48
2023-03-12T01:41:51.750Z,15.10
2023-03-12T01:44:18.167Z,16.85
2023-03-12T01:46:45.129Z,19.92
2023-03-12T01:49:16.976Z,15.30
2023-03-12T01:51:52.302Z,18.33
2023-03-12T01:54:23.430Z,16.92
2023-03-12T01:56:50.616Z,17.17
2023-03-12T01:59:24.729Z,16.15
2023-03-12T02:01:51.300Z,13.40
2023-03-12T02:04:24.049Z,15.77
2023-03-12T02:07:02.902Z,13.77
2023-03-12T02:09:34.538Z,18.38
2023-03-12T02:12:01.092Z,14.88
2023-03-12T02:14:27.607Z,19.88
2023-03-12T02:16:55.395Z,16.08
2023-03-12T02:19:47.561Z,15.68
2023-03-12T02:22:15.454Z,16.42
2023-03-12T02:24:52.522Z,16.95
2023-03-12T02:27:21.104Z,14.40
2023-03-12T02:29:47.550Z,14.15
2023-03-12T02:32:26.028Z,15.32
2023-03-12T02:34:52.381Z,18.17
2023-03-12T02:37:19.682Z,21.55
2023-03-12T02:39:59.999Z,16.27
2023-03-12T02:42:26.635Z,16.00
2023-03-12T02:44:53.849Z,19.52
2023-03-12T02:47:20.184Z,16.48
2023-03-12T02:49:46.474Z,17.85
2023-03-12T02:52:12.834Z,14.32
2023-03-12T02:54:39.147Z,15.73
2023-03-12T02:57:05.462Z,15.48
2023-03-12T02:59:31.794Z,17.13
2023-03-12T03:01:59.656Z,16.52
2023-03-12T03:04:28.673Z,20.40
2023-03-12T03:06:55.294Z,16.67
2023-03-12T03:09:21.888Z,18.30
2023-03-12T03:11:49.384Z,14.70
2023-03-12T03:14:15.828Z,13.20
2023-03-12T03:16:42.159Z,17.15
2023-03-12T03:19:08.515Z,14.50
2023-03-12T03:21:34.840Z,12.18
2023-03-12T03:24:01.221Z,16.50
2023-03-12T03:26:27.657Z,19.00
2023-03-12T03:28:54.066Z,14.88
2023-03-12T03:31:21.001Z,12.52
2023-03-12T03:33:48.196Z,13.63
2023-03-12T03:36:15.099Z,14.05
2023-03-12T03:38:42.405Z,13.23
2023-03-12T03:41:08.726Z,15.30
2023-03-12T03:43:35.018Z,13.13
2023-03-12T03:46:05.742Z,16.35
2023-03-12T03:48:32.880Z,17.02
2023-03-12T03:51:04.587Z,13.45
2023-03-12T03:53:31.417Z,14.88
2023-03-12T03:55:57.887Z,13.13
2023-03-12T03:58:24.494Z,13.27
2023-03-12T04:00:50.873Z,12.38
2023-03-12T04:03:17.393Z,14.63
2023-03-12T04:05:43.759Z,12.82
2023-03-12T04:08:10.200Z,14.20
2023-03-12T04:10:37.153Z,14.05
2023-03-12T04:13:03.523Z,11.48
2023-03-12T04:15:29.838Z,14.27
2023-03-12T04:17:56.227Z,13.23
2023-03-12T04:20:22.576Z,13.88
2023-03-12T04:22:48.930Z,14.75
2023-03-12T04:25:15.242Z,16.15
2023-03-12T04:27:41.547Z,14.85
2023-03-12T04:30:08.717Z,13.70
2023-03-12T04:32:35.110Z,12.60
2023-03-12T04:35:01.456Z,11.35
2023-03-12T04:37:27.773Z,13.73
2023-03-12T04:39:54.077Z,14.65
2023-03-12T04:42:20.387Z,15.48
2023-03-12T04:44:46.713Z,12.85
2023-03-12T04:47:13.048Z,10.98
2023-03-12T04:49:39.365Z,14.20
2023-03-12T04:52:06.092Z,15.85
2023-03-12T04:54:32.501Z,13.68
2023-03-12T04:56:58.834Z,17.67
2023-03-12T04:59:25.187Z,11.85
2023-03-12T05:01:51.538Z,13.18
2023-03-12T05:04:17.856Z,10.68
2023-03-12T05:06:44.169Z,11.23
2023-03-12T05:09:10.467Z,11.00
2023-03-12T05:11:39.199Z,12.65
2023-03-12T05:14:06.069Z,13.20
2023-03-12T05:16:32.677Z,10.75
2023-03-12T05:18:59.020Z,13.38
2023-03-12T05:21:25.381Z,11.07
2023-03-12T05:23:51.784Z,9.27
2023-03-12T05:26:19.861Z,14.13
2023-03-12T05:28:46.674Z,11.57
2023-03-12T05:31:14.289Z,14.18
2023-03-12T05:33:41.297Z,11.85
2023-03-12T05:36:08.628Z,10.68
2023-03-12T05:38:35.195Z,12.40
2023-03-12T05:41:01.706Z,10.32
2023-03-12T05:43:28.478Z,11.18
2023-03-12T05:45:59.436Z,10.35
2023-03-12T05:48:26.258Z,10.20
2023-03-12T05:50:52.565Z,9.90
2023-03-12T05:53:18.917Z,11.15
2023-03-12T05:55:45.219Z,10.90
2023-03-12T05:58:11.602Z,12.70
2023-03-12T06:00:37.965Z,11.50
2023-03-12T06:03:05.667Z,9.88
2023-03-12T06:05:33.486Z,13.55
2023-03-12T06:08:00.198Z,10.57
2023-03-12T06:10:27.368Z,12.45
2023-03-12T06:12:54.084Z,14.43
2023-03-12T06:15:20.543Z,14.45
2023-03-12T06:17:46.874Z,10.95
2023-03-12T06:20:13.323Z,12.32
2023-03-12T06:22:39.652Z,14.32
2023-03-12T06:25:06.573Z,14.82
2023-03-12T06:27:33.133Z,15.80
2023-03-12T06:29:59.436Z,12.10
2023-03-12T06:32:25.986Z,15.60
2023-03-12T06:34:52.343Z,13.90
2023-03-12T06:37:18.671Z,12.88
2023-03-12T06:39:44.964Z,17.63
2023-03-12T06:42:11.295Z,14.73
2023-03-12T06:44:37.586Z,13.50
2023-03-12T06:47:04.088Z,17.17
2023-03-12T06:49:30.406Z,14.70
2023-03-12T06:51:56.721Z,12.55
2023-03-12T06:54:23.031Z,12.43
2023-03-12T06:56:49.370Z,12.43
2023-03-12T06:59:15.869Z,15.27
2023-03-12T07:01:42.174Z,11.05
2023-03-12T07:04:08.509Z,11.93
2023-03-12T07:06:34.843Z,12.32
2023-03-12T07:09:13.058Z,11.10
2023-03-12T07:11:39.375Z,10.55
2023-03-12T07:14:05.683Z,10.18
2023-03-12T07:16:32.072Z,12.52
2023-03-12T07:18:58.433Z,8.82
2023-03-12T07:21:24.732Z,13.85
2023-03-12T07:23:51.934Z,9.48
2023-03-12T07:26:19.328Z,10.15
2023-03-12T07:28:45.999Z,12.00
2023-03-12T07:31:12.566Z,12.30
2023-03-12T07:33:39.149Z,11.88
2023-03-12T07:36:06.071Z,9.60
2023-03-12T07:38:32.453Z,9.90
2023-03-12T07:40:59.277Z,11.27
2023-03-12T07:43:25.969Z,12.65
2023-03-12T07:45:52.600Z,10.07
2023-03-12T07:48:18.987Z,8.95
2023-03-12T07:50:46.088Z,14.65
2023-03-12T07:53:12.471Z,10.98
2023-03-12T07:55:38.983Z,8.73
2023-03-12T07:58:05.374Z,11.38
2023-03-12T08:00:32.228Z,13.98
2023-03-12T08:02:58.754Z,9.55
2023-03-12T08:05:25.210Z,8.38
2023-03-12T08:07:52.514Z,9.15
2023-03-12T08:10:20.245Z,10.45
2023-03-12T08:12:46.699Z,8.65
2023-03-12T08:15:13.341Z,12.35
2023-03-12T08:17:39.936Z,7.22
2023-03-12T08:20:07.034Z,8.30
2023-03-12T08:22:33.326Z,6.07
2023-03-12T08:24:59.652Z,10.13
2023-03-12T08:27:26.148Z,6.72
2023-03-12T08:29:52.503Z,8.02
2023-03-12T08:32:18.961Z,7.57
2023-03-12T08:34:45.580Z,6.43
2023-03-12T08:37:11.916Z,10.77
2023-03-12T08:39:38.357Z,8.27
2023-03-12T08:42:04.937Z,10.52
2023-03-12T08:44:31.269Z,10.60
2023-03-12T08:46:57.585Z,9.90
2023-03-12T08:49:23.950Z,8.32
2023-03-12T08:51:50.780Z,6.55
2023-03-12T08:54:18.224Z,10.98
2023-03-12T08:56:44.758Z,6.60
2023-03-12T08:59:12.146Z,6.05
2023-03-12T09:01:41.142Z,10.38
2023-03-12T09:04:08.924Z,8.65
2023-03-12T09:06:35.259Z,10.45
2023-03-12T09:09:02.596Z,13.68
2023-03-12T09:11:28.884Z,7.82
2023-03-12T09:14:28.040Z,6.80
2023-03-12T09:16:41.524Z,8.80
2023-03-12T09:19:07.914Z,7.45
2023-03-12T09:21:34.270Z,10.18
2023-03-12T09:24:00.623Z,9.52
2023-03-12T09:26:26.979Z,8.02
2023-03-12T09:28:53.286Z,11.68
2023-03-12T09:31:19.906Z,7.90
2023-03-12T09:33:46.343Z,10.35
2023-03-12T09:36:12.688Z,8.70
2023-03-12T09:38:39.037Z,9.75
2023-03-12T09:41:12.870Z,9.50
2023-03-12T09:43:42.818Z,14.20
2023-03-12T09:46:17.787Z,13.05
2023-03-12T09:48:47.647Z,10.38
2023-03-12T09:51:20.507Z,9.50
2023-03-12T09:53:51.878Z,12.80
2023-03-12T09:56:20.797Z,7.80
2023-03-12T09:58:48.423Z,9.48
2023-03-12T10:01:32.239Z,9.50
2023-03-12T10:04:16.593Z,8.32
2023-03-12T10:06:52.100Z,11.77
2023-03-12T10:09:57.330Z,11.45
2023-03-12T10:12:38.750Z,7.15
2023-03-12T10:15:15.057Z,7.82
2023-03-12T10:18:06.083Z,6.03
2023-03-12T10:20:49.547Z,9.75
2023-03-12T10:23:37.501Z,10.63
2023-03-12T10:26:13.457Z,8.15
2023-03-12T10:28:54.581Z,7.78
2023-03-12T10:31:27.757Z,9.43
2023-03-12T10:34:00.030Z,9.80
2023-03-12T10:36:38.164Z,15.20
2023-03-12T10:39:13.392Z,8.65
2023-03-12T10:41:43.402Z,9.60
2023-03-12T10:44:18.134Z,8.65
2023-03-12T10:47:18.616Z,14.40
2023-03-12T10:49:44.965Z,11.93
2023-03-12T10:52:21.786Z,13.68
2023-03-12T10:54:50.067Z,10.80
2023-03-12T10:57:17.004Z,10.23
2023-03-12T10:59:47.256Z,10.95
2023-03-12T11:02:37.303Z,12.80
2023-03-12T11:05:20.908Z,12.32
2023-03-12T11:07:47.409Z,12.23
2023-03-12T11:10:38.390Z,15.15
2023-03-12T11:13:20.763Z,17.40
2023-03-12T11:15:47.554Z,16.10
2023-03-12T11:18:36.668Z,29.35
2023-03-12T11:21:08.827Z,21.05
2023-03-12T11:23:46.848Z,11.75
2023-03-12T11:26:19.888Z,16.50
2023-03-12T11:28:52.395Z,20.08
2023-03-12T11:31:53.292Z,17.45
2023-03-12T11:34:27.813Z,15.95
2023-03-12T11:37:10.343Z,15.70
2023-03-12T11:40:15.428Z,17.23
2023-03-12T11:43:10.117Z,14.43
2023-03-12T11:45:50.577Z,17.77
2023-03-12T11:48:25.805Z,13.65
2023-03-12T11:50:58.156Z,17.58
2023-03-12T11:53:48.883Z,14.23
2023-03-12T11:56:26.932Z,18.60
2023-03-12T11:59:33.089Z,13.52
2023-03-12T12:02:31.040Z,11.48
2023-03-12T12:05:22.412Z,12.23
2023-03-12T12:08:32.763Z,10.38
2023-03-12T12:11:22.880Z,10.68
2023-03-12T12:13:55.626Z,11.20
2023-03-12T12:16:51.158Z,11.85
2023-03-12T12:22:01.459Z,12.43
2023-03-12T12:24:58.997Z,8.63
2023-03-12T12:27:49.114Z,14.10
2023-03-12T12:30:23.273Z,10.02
2023-03-12T12:33:15.743Z,14.77
2023-03-12T12:35:43.562Z,12.23
2023-03-12T12:38:28.922Z,16.60
2023-03-12T12:41:03.571Z,13.38
2023-03-12T12:43:33.843Z,13.85
2023-03-12T12:46:04.196Z,14.18
2023-03-12T12:48:36.438Z,11.93
2023-03-12T12:51:07.554Z,12.55
2023-03-12T12:53:52.304Z,13.90
2023-03-12T12:56:52.863Z,12.02
2023-03-12T12:59:38.173Z,12.45
2023-03-12T13:02:15.186Z,14.73
2023-03-12T13:04:42.657Z,11.65
2023-03-12T13:07:11.690Z,14.88
2023-03-12T13:09:49.906Z,12.52
2023-03-12T13:12:29.671Z,14.40
2023-03-12T13:14:58.133Z,15.45
2023-03-12T13:17:53.333Z,17.38
2023-03-12T13:20:21.244Z,13.95
2023-03-12T13:23:11.890Z,16.35
2023-03-12T13:26:00.136Z,15.90
2023-03-12T13:28:26.413Z,15.77
2023-03-12T13:30:53.928Z,16.80
2023-03-12T13:33:38.862Z,14.93
2023-03-12T13:36:17.232Z,18.02
2023-03-12T13:38:58.669Z,18.00
2023-03-12T13:41:41.684Z,20.02
2023-03-12T13:44:23.026Z,14.85
2023-03-12T13:47:11.050Z,17.13
2023-03-12T13:49:56.284Z,17.63
2023-03-12T13:55:00.995Z,18.25
2023-03-12T13:57:38.979Z,20.10
2023-03-12T14:00:15.182Z,18.92
2023-03-12T14:03:04.781Z,20.45
2023-03-12T14:05:42.880Z,22.88
2023-03-12T14:08:27.537Z,20.70
2023-03-12T14:11:03.102Z,23.75
2023-03-12T14:13:39.568Z,25.75
2023-03-12T14:16:17.465Z,27.17
2023-03-12T14:18:45.167Z,30.33
2023-03-12T14:21:15.846Z,29.33
2023-03-12T14:23:54.039Z,31.60
2023-03-12T14:26:24.803Z,36.72
2023-03-12T14:28:58.649Z,36.83
2023-03-12T14:31:25.824Z,37.33
2023-03-12T14:34:01.716Z,37.90
2023-03-12T14:36:37.219Z,39.65
2023-03-12T14:39:32.161Z,40.65
2023-03-12T14:42:00.617Z,46.80
2023-03-12T14:44:29.272Z,42.85
2023-03-12T14:46:59.489Z,42.65
2023-03-12T14:49:26.282Z,43.67
2023-03-12T14:51:53.500Z,49.35
2023-03-12T14:54:22.813Z,48.15
2023-03-12T14:56:49.913Z,50.90
2023-03-12T14:59:31.067Z,52.30
2023-03-12T15:02:18.574Z,48.22
2023-03-12T15:04:45.640Z,49.90
2023-03-12T15:07:15.205Z,47.63
2023-03-12T15:09:47.461Z,48.45
2023-03-12T15:12:23.402Z,48.63
2023-03-12T15:14:54.796Z,52.22
2023-03-12T15:17:24.011Z,49.47
2023-03-12T15:19:50.652Z,54.65
2023-03-12T15:22:20.944Z,50.30
2023-03-12T15:24:47.636Z,46.13
2023-03-12T15:27:21.556Z,51.70
2023-03-12T15:29:47.908Z,50.67
2023-03-12T15:32:16.144Z,49.45
2023-03-12T15:34:43.026Z,50.95
2023-03-12T15:37:25.004Z,52.95
2023-03-12T15:39:53.139Z,52.67
2023-03-12T15:42:23.686Z,50.05
2023-03-12T15:45:02.237Z,50.92
2023-03-12T15:47:31.683Z,61.53
2023-03-12T15:50:12.956Z,55.97
2023-03-12T15:52:39.301Z,56.70
2023-03-12T15:55:29.004Z,56.08
2023-03-12T15:57:57.008Z,61.97
2023-03-12T16:00:31.176Z,64.00
2023-03-12T16:02:58.939Z,64.72
2023-03-12T16:05:29.198Z,62.80
2023-03-12T16:07:55.635Z,64.90
2023-03-12T16:10:24.241Z,63.33
2023-03-12T16:12:57.881Z,64.30
2023-03-12T16:15:30.561Z,68.10
2023-03-12T16:17:57.002Z,67.32
2023-03-12T16:20:23.285Z,70.45
2023-03-12T16:22:49.589Z,69.03
2023-03-12T16:25:15.999Z,66.53
2023-03-12T16:27:49.666Z,63.97
2023-03-12T16:30:20.486Z,68.88
2023-03-12T16:32:47.035Z,64.88
2023-03-12T16:35:16.280Z,70.47
2023-03-12T16:37:43.278Z,69.25
2023-03-12T16:40:11.875Z,60.88
2023-03-12T16:42:49.317Z,68.95
2023-03-12T16:45:17.393Z,63.83
2023-03-12T16:47:44.950Z,68.05
2023-03-12T16:50:19.441Z,66.57
2023-03-12T16:52:46.366Z,66.70
2023-03-12T16:55:15.933Z,67.13
2023-03-12T16:57:47.164Z,65.00
2023-03-12T17:00:25.152Z,68.47
2023-03-12T17:02:53.173Z,72.55
2023-03-12T17:05:19.548Z,66.47
2023-03-12T17:07:46.235Z,68.68
2023-03-12T17:10:15.242Z,71.85
2023-03-12T17:12:42.385Z,63.15
2023-03-12T17:15:14.831Z,56.38
2023-03-12T17:17:41.330Z,57.22
2023-03-12T17:20:08.892Z,57.70
2023-03-12T17:22:35.297Z,53.88
2023-03-12T17:25:02.429Z,54.10
2023-03-12T17:27:29.010Z,56.78
2023-03-12T17:29:55.514Z,51.20
2023-03-12T17:32:21.883Z,56.30
2023-03-12T17:34:53.741Z,50.67
2023-03-12T17:37:20.066Z,51.15
2023-03-12T17:39:47.969Z,51.22
2023-03-12T17:42:14.407Z,48.55
2023-03-12T17:44:40.740Z,46.58
2023-03-12T17:47:07.174Z,50.13
2023-03-12T17:49:33.492Z,51.38
2023-03-12T17:52:02.450Z,50.20
2023-03-12T17:54:28.789Z,49.35
2023-03-12T17:56:55.097Z,47.95
2023-03-12T17:59:21.515Z,53.10
2023-03-12T18:01:47.811Z,44.15
2023-03-12T18:04:14.117Z,40.50
2023-03-12T18:06:40.436Z,48.70
2023-03-12T18:09:06.794Z,39.58
2023-03-12T18:11:33.110Z,44.38
2023-03-12T18:13:59.417Z,41.75
2023-03-12T18:16:25.895Z,50.30
2023-03-12T18:18:53.024Z,40.45
2023-03-12T18:21:19.734Z,44.55
2023-03-12T18:23:46.077Z,39.25
2023-03-12T18:26:12.453Z,47.60
2023-03-12T18:28:38.794Z,42.10
2023-03-12T18:31:05.158Z,39.00
2023-03-12T18:33:31.576Z,47.35
2023-03-12T18:35:57.935Z,36.38
2023-03-12T18:38:24.282Z,38.97
2023-03-12T18:40:50.573Z,43.20
2023-03-12T18:43:16.910Z,40.63
2023-03-12T18:45:43.349Z,48.60
2023-03-12T18:48:10.358Z,38.88
2023-03-12T18:50:36.692Z,38.30
2023-03-12T18:53:03.469Z,42.33
2023-03-12T18:55:30.834Z,47.00
2023-03-12T18:57:57.157Z,47.90
2023-03-12T19:00:23.522Z,42.03
2023-03-12T19:02:49.893Z,45.78
2023-03-12T19:05:16.467Z,51.05
2023-03-12T19:07:43.306Z,39.90
2023-03-12T19:10:10.733Z,48.47
2023-03-12T19:12:50.954Z,48.15
2023-03-12T19:15:19.017Z,52.35
2023-03-12T19:17:45.371Z,49.30
2023-03-12T19:20:12.447Z,54.55
2023-03-12T19:22:38.851Z,46.90
2023-03-12T19:25:05.677Z,60.67
2023-03-12T19:27:32.018Z,50.08
2023-03-12T19:29:58.448Z,46.15
2023-03-12T19:32:27.747Z,51.38
2023-03-12T19:34:59.494Z,57.10
2023-03-12T19:37:25.883Z,49.53
2023-03-12T19:39:52.248Z,52.67
2023-03-12T19:42:18.813Z,53.17
2023-03-12T19:44:45.210Z,54.47
2023-03-12T19:47:11.631Z,43.00
2023-03-12T19:49:38.037Z,52.50
2023-03-12T19:52:04.436Z,56.80
2023-03-12T19:54:30.760Z,50.15
2023-03-12T19:56:57.104Z,51.20
2023-03-12T19:59:23.489Z,49.30
2023-03-12T20:01:49.925Z,51.85
2023-03-12T20:04:16.509Z,54.47
2023-03-12T20:06:42.844Z,44.42
2023-03-12T20:09:09.158Z,47.70
2023-03-12T20:11:35.494Z,54.42
2023-03-12T20:14:03.280Z,52.28
2023-03-12T20:16:29.632Z,48.97
2023-03-12T20:18:56.087Z,43.00
2023-03-12T20:21:22.801Z,43.97
2023-03-12T20:23:49.209Z,51.30
2023-03-12T20:26:15.581Z,43.08
2023-03-12T20:28:42.024Z,38.72
2023-03-12T20:31:09.117Z,56.22
2023-03-12T20:33:35.501Z,47.75
2023-03-12T20:36:13.019Z,43.05
2023-03-12T20:38:39.752Z,43.00
2023-03-12T20:41:13.824Z,43.50
2023-03-12T20:43:44.154Z,43.08
2023-03-12T20:46:11.843Z,44.25
2023-03-12T20:48:38.682Z,43.47
2023-03-12T20:51:05.364Z,42.33
2023-03-12T20:53:31.657Z,43.45
2023-03-12T20:55:57.985Z,39.17
2023-03-12T20:58:24.346Z,34.97
2023-03-12T21:00:50.745Z,43.33
2023-03-12T21:03:17.134Z,43.25
2023-03-12T21:05:43.443Z,42.47
2023-03-12T21:08:09.734Z,45.35
2023-03-12T21:10:39.104Z,41.47
2023-03-12T21:13:05.808Z,39.08
2023-03-12T21:15:32.112Z,41.85
2023-03-12T21:17:58.402Z,34.10
2023-03-12T21:20:24.853Z,41.75
2023-03-12T21:22:51.149Z,42.38
2023-03-12T21:25:17.582Z,36.47
2023-03-12T21:27:50.512Z,36.92
2023-03-12T21:30:17.836Z,37.28
2023-03-12T21:32:44.295Z,36.58
2023-03-12T21:35:10.870Z,34.65
2023-03-12T21:37:37.206Z,28.38
2023-03-12T21:40:04.006Z,39.20
2023-03-12T21:42:33.155Z,36.33
2023-03-12T21:44:59.467Z,37.50
2023-03-12T21:47:25.784Z,37.60
2023-03-12T21:49:52.085Z,41.67
2023-03-12T21:52:18.433Z,34.70
2023-03-12T21:54:44.729Z,40.90
2023-03-12T21:57:11.082Z,39.42
2023-03-12T21:59:37.396Z,41.00
2023-03-12T22:02:03.892Z,33.20
2023-03-12T22:04:30.305Z,37.80
2023-03-12T22:06:56.771Z,27.75
2023-03-12T22:09:23.082Z,35.28
2023-03-12T22:11:49.435Z,33.03
2023-03-12T22:14:15.751Z,33.63
2023-03-12T22:16:42.068Z,37.22
2023-03-12T22:19:08.369Z,33.50
2023-03-12T22:21:34.704Z,36.97
2023-03-12T22:24:01.872Z,33.53
2023-03-12T22:26:28.383Z,39.35
2023-03-12T22:28:57.369Z,35.20
2023-03-12T22:31:26.163Z,29.27
2023-03-12T22:33:52.764Z,26.48
2023-03-12T22:36:19.941Z,36.38
2023-03-12T22:38:46.734Z,31.42
2023-03-12T22:41:15.946Z,34.17
2023-03-12T22:43:42.756Z,35.63
2023-03-12T22:46:09.097Z,23.08
2023-03-12T22:48:35.784Z,29.63
2023-03-12T22:51:03.723Z,39.08
2023-03-12T22:53:31.237Z,35.22
2023-03-12T22:55:59.384Z,38.20
2023-03-12T22:58:26.492Z,30.30
2023-03-12T23:01:05.219Z,32.40
2023-03-12T23:03:33.696Z,31.63
2023-03-12T23:06:01.084Z,40.22
2023-03-12T23:08:28.592Z,30.67
2023-03-12T23:11:03.440Z,36.15
2023-03-12T23:16:03.933Z,39.55
2023-03-12T23:18:30.473Z,27.27
2023-03-12T23:21:02.031Z,34.38
2023-03-12T23:23:28.977Z,38.47
2023-03-12T23:25:57.040Z,39.20
2023-03-12T23:28:24.098Z,35.47
2023-03-12T23:30:55.541Z,35.88
2023-03-12T23:33:21.913Z,36.65
2023-03-12T23:36:01.153Z,34.22
2023-03-12T23:38:28.927Z,34.72
2023-03-12T23:41:06.839Z,29.95
2023-03-12T23:43:33.929Z,29.85
2023-03-12T23:46:02.153Z,28.70
2023-03-12T23:48:30.327Z,34.38
2023-03-12T23:51:05.608Z,29.65
2023-03-12T23:53:32.476Z,37.42
2023-03-12T23:56:00.799Z,33.00
2023-03-12T23:58:28.271Z,24.02
